Time;durP1;ratioP1;P1;durP2;ratioP2;P2;SDS_P1;SDS_P2;PMS_P1;PMS_P2;Temp;Humidity;BMP_temperature;BMP_pressure;BME280_temperature;BME280_humidity;BME280_pressure;Samples;Min_cycle;Max_cycle;Signal;HPM_P1;HPM_P2
2021/03/03 00:00:32;;;;;;;73.00;42.20;;;;;;;0.56;81.79;102112.66;99439;1168;75707;-62
2021/03/03 00:02:49;;;;;;;60.50;35.83;;;;;;;0.64;81.69;102116.69;99563;1171;88596;-62
2021/03/03 00:04:55;;;;;;;66.90;40.40;;;;;;;0.66;81.76;102120.15;99543;1167;83674;-74
2021/03/03 00:07:01;;;;;;;75.80;47.95;;;;;;;0.65;81.94;102129.92;99561;1170;66897;-75
2021/03/03 00:09:07;;;;;;;60.95;41.45;;;;;;;0.65;81.73;102132.58;99542;1170;86928;-74
2021/03/03 00:11:13;;;;;;;64.85;38.50;;;;;;;0.74;81.55;102129.42;99452;1174;75584;-74
2021/03/03 00:13:19;;;;;;;56.60;33.75;;;;;;;0.80;81.80;102123.74;99438;1174;89081;-74
2021/03/03 00:15:25;;;;;;;59.20;35.10;;;;;;;0.83;81.76;102123.58;99426;1174;82635;-62
2021/03/03 00:17:30;;;;;;;63.25;35.90;;;;;;;0.81;81.99;102122.81;99451;1174;67211;-62
2021/03/03 00:19:39;;;;;;;62.60;37.05;;;;;;;0.86;81.82;102119.89;99436;1168;86405;-62
2021/03/03 00:21:45;;;;;;;59.15;36.60;;;;;;;0.89;82.01;102117.92;99439;1168;76377;-62
2021/03/03 00:23:51;;;;;;;58.00;36.15;;;;;;;0.95;81.77;102120.25;99445;1167;88764;-73
2021/03/03 00:25:56;;;;;;;54.60;33.20;;;;;;;0.91;81.84;102116.03;99414;1174;81311;-74
2021/03/03 00:28:02;;;;;;;56.40;34.30;;;;;;;0.86;81.73;102117.22;99459;1173;67073;-77
2021/03/03 00:30:13;;;;;;;57.80;34.10;;;;;;;0.86;81.86;102114.56;99441;1174;88911;-62
2021/03/03 00:32:19;;;;;;;68.50;37.80;;;;;;;0.91;81.90;102102.72;99448;1174;76123;-61
2021/03/03 00:34:25;;;;;;;66.10;37.30;;;;;;;0.91;81.79;102093.88;99443;1174;89806;-77
2021/03/03 00:36:30;;;;;;;62.80;38.00;;;;;;;0.88;81.72;102099.41;99423;1174;81967;-78
2021/03/03 00:38:36;;;;;;;61.30;36.30;;;;;;;0.94;81.67;102099.03;99445;1174;66831;-77
2021/03/03 00:40:42;;;;;;;64.55;35.90;;;;;;;1.00;81.95;102094.23;99435;1167;86578;-77
2021/03/03 00:42:48;;;;;;;65.13;37.27;;;;;;;0.97;81.93;102098.86;99435;1173;75550;-77
2021/03/03 00:44:57;;;;;;;65.80;37.90;;;;;;;0.94;81.64;102099.89;99447;1174;89470;-77
2021/03/03 00:47:02;;;;;;;65.95;38.35;;;;;;;0.95;81.50;102114.06;99430;1171;81952;-77
2021/03/03 00:49:11;;;;;;;68.95;36.10;;;;;;;0.90;81.82;102110.80;99441;1171;67124;-75
2021/03/03 00:51:17;;;;;;;62.50;36.05;;;;;;;0.97;81.61;102114.83;99434;1174;87374;-76
2021/03/03 00:53:25;;;;;;;64.80;38.55;;;;;;;0.94;81.61;102101.69;99452;1174;74457;-71
2021/03/03 00:55:31;;;;;;;66.00;37.60;;;;;;;0.90;81.84;102102.83;99443;1171;88281;-61
2021/03/03 00:57:39;;;;;;;68.80;36.70;;;;;;;0.94;81.83;102102.55;99427;1174;81445;-61
2021/03/03 00:59:45;;;;;;;65.30;38.60;;;;;;;1.00;81.36;102109.34;99449;1174;66897;-62
2021/03/03 01:01:50;;;;;;;61.80;36.40;;;;;;;0.97;81.54;102107.70;99436;1168;87526;-62
2021/03/03 01:03:56;;;;;;;66.20;38.40;;;;;;;0.92;81.68;102112.44;99566;1172;76578;-62
2021/03/03 01:06:02;;;;;;;64.80;37.10;;;;;;;0.93;81.47;102106.19;99548;1167;89734;-62
2021/03/03 01:08:08;;;;;;;78.80;49.60;;;;;;;0.91;81.81;102109.84;99538;1172;82627;-62
2021/03/03 01:10:14;;;;;;;76.60;46.40;;;;;;;0.90;81.63;102105.48;99559;1166;67014;-76
2021/03/03 01:12:20;;;;;;;230.00;90.50;;;;;;;0.82;82.01;102100.60;99576;1172;86464;-77
2021/03/03 01:14:26;;;;;;;166.53;68.07;;;;;;;0.83;81.79;102102.30;99565;1172;74591;-75
2021/03/03 01:16:32;;;;;;;105.30;48.70;;;;;;;0.79;81.46;102094.58;99543;1157;89924;-75
2021/03/03 01:18:37;;;;;;;115.55;52.80;;;;;;;0.72;82.16;102090.53;99544;1171;81567;-76
2021/03/03 01:20:43;;;;;;;95.00;47.30;;;;;;;0.70;81.68;102098.61;99453;1171;66960;-75
2021/03/03 01:22:51;;;;;;;71.80;39.40;;;;;;;0.71;82.08;102083.52;99562;1171;87086;-60
2021/03/03 01:24:57;;;;;;;80.63;42.60;;;;;;;0.73;82.03;102084.28;99441;1167;76264;-61
2021/03/03 01:27:02;;;;;;;89.90;46.30;;;;;;;0.67;81.90;102079.30;99441;1168;88848;-60
2021/03/03 01:29:08;;;;;;;99.70;48.20;;;;;;;0.69;82.15;102077.44;99544;1168;82618;-60
2021/03/03 01:31:15;;;;;;;102.80;48.95;;;;;;;0.63;82.29;102083.95;99560;1172;67056;-60
2021/03/03 01:33:28;;;;;;;88.10;46.65;;;;;;;0.65;81.90;102086.51;99557;1167;86471;-60
2021/03/03 01:35:34;;;;;;;136.55;62.55;;;;;;;0.66;82.06;102075.77;99563;1172;75793;-61
2021/03/03 01:37:40;;;;;;;161.50;67.00;;;;;;;0.58;82.05;102068.23;99539;1171;88382;-60
2021/03/03 01:39:46;;;;;;;163.10;74.80;;;;;;;0.59;82.32;102077.06;99540;1171;81683;-60
2021/03/03 01:41:52;;;;;;;166.80;74.05;;;;;;;0.61;82.56;102072.52;99560;1167;67061;-74
2021/03/03 01:43:57;;;;;;;128.90;57.40;;;;;;;0.56;82.34;102067.47;99557;1172;88284;-75
2021/03/03 01:46:03;;;;;;;127.30;56.60;;;;;;;0.55;82.46;102065.73;99559;1172;75471;-75
2021/03/03 01:48:12;;;;;;;74.60;38.00;;;;;;;0.52;82.34;102065.90;99578;1172;89434;-75
2021/03/03 01:50:20;;;;;;;72.57;39.10;;;;;;;0.56;82.13;102062.14;99522;1171;82881;-74
2021/03/03 01:52:26;;;;;;;78.10;39.50;;;;;;;0.59;82.24;102051.34;99551;1172;67141;-75
2021/03/03 01:54:35;;;;;;;66.50;36.00;;;;;;;0.62;82.05;102047.66;99550;1172;87931;-74
2021/03/03 01:56:41;;;;;;;67.20;34.83;;;;;;;0.58;82.09;102049.61;99567;1172;75934;-74
2021/03/03 01:58:47;;;;;;;67.70;36.80;;;;;;;0.57;82.57;102055.03;99571;1172;90293;-74
2021/03/03 02:00:53;;;;;;;66.73;35.63;;;;;;;0.62;82.38;102055.63;99531;1172;82900;-74
2021/03/03 02:02:58;;;;;;;94.40;44.90;;;;;;;0.56;82.21;102048.85;99585;1168;66830;-76
2021/03/03 02:05:10;;;;;;;140.50;57.10;;;;;;;0.60;82.09;102047.72;99571;1172;87573;-74
2021/03/03 02:07:23;;;;;;;71.10;38.13;;;;;;;0.63;82.02;102052.04;99560;1172;74682;-75
2021/03/03 02:09:39;;;;;;;64.30;34.90;;;;;;;0.66;82.07;102043.03;99562;1172;89025;-73
2021/03/03 02:11:53;;;;;;;67.70;34.85;;;;;;;0.56;82.71;102046.19;99547;1172;82355;-61
2021/03/03 02:14:06;;;;;;;73.05;35.55;;;;;;;0.52;82.60;102047.29;99566;1172;67069;-61
2021/03/03 02:16:15;;;;;;;71.40;38.95;;;;;;;0.59;82.07;102050.48;99540;1167;87107;-61
2021/03/03 02:18:22;;;;;;;68.70;36.20;;;;;;;0.60;82.27;102044.23;99555;1172;75580;-61
2021/03/03 02:20:33;;;;;;;68.20;33.90;;;;;;;0.62;82.34;102052.11;99569;1172;89710;-61
2021/03/03 02:22:59;;;;;;;61.90;33.30;;;;;;;0.62;82.34;102049.45;99543;1167;82841;-61
2021/03/03 02:25:23;;;;;;;66.90;34.85;;;;;;;0.68;82.37;102042.00;99559;1167;66880;-61
2021/03/03 02:27:30;;;;;;;60.40;32.10;;;;;;;0.63;82.66;102051.17;99478;1172;87682;-61
2021/03/03 02:29:36;;;;;;;69.90;38.45;;;;;;;0.54;82.74;102053.41;99548;1172;77216;-61
2021/03/03 02:31:46;;;;;;;58.50;32.30;;;;;;;0.55;82.66;102052.44;99543;1172;88867;-61
2021/03/03 02:33:52;;;;;;;59.80;33.95;;;;;;;0.59;82.27;102048.69;99550;1172;82028;-62
2021/03/03 02:35:59;;;;;;;57.30;32.95;;;;;;;0.59;82.63;102045.16;99554;1172;67142;-62
2021/03/03 02:38:07;;;;;;;59.30;33.25;;;;;;;0.64;82.74;102047.55;99558;1172;87253;-62
2021/03/03 02:40:15;;;;;;;64.50;33.60;;;;;;;0.55;82.68;102044.47;99589;1172;76724;-61
2021/03/03 02:42:25;;;;;;;65.70;32.60;;;;;;;0.65;82.48;102046.63;99563;1172;89680;-60
2021/03/03 02:44:32;;;;;;;74.15;37.25;;;;;;;0.72;82.71;102043.52;99545;1172;81586;-61
2021/03/03 02:46:40;;;;;;;75.50;39.10;;;;;;;0.68;82.62;102049.11;99563;1172;66969;-60
2021/03/03 02:48:48;;;;;;;68.70;36.30;;;;;;;0.59;82.76;102045.16;99547;1172;87862;-61
2021/03/03 02:50:54;;;;;;;87.35;43.30;;;;;;;0.66;82.31;102051.01;99561;1172;75858;-61
2021/03/03 02:53:00;;;;;;;92.45;42.40;;;;;;;0.68;82.67;102049.98;99553;1172;89522;-60
2021/03/03 02:55:08;;;;;;;83.60;39.20;;;;;;;0.69;82.38;102042.86;99529;1171;81903;-62
2021/03/03 02:57:14;;;;;;;76.35;38.25;;;;;;;0.69;82.14;102042.86;99570;1172;66913;-62
2021/03/03 02:59:29;;;;;;;73.05;35.05;;;;;;;0.65;82.44;102042.16;99536;1171;87942;-62
2021/03/03 03:01:35;;;;;;;95.00;41.30;;;;;;;0.59;82.54;102047.81;99572;1171;76142;-73
2021/03/03 03:03:49;;;;;;;76.40;37.20;;;;;;;0.65;82.76;102049.28;99543;1172;89508;-75
2021/03/03 03:05:57;;;;;;;;;;;;;;;0.68;82.43;102046.45;99551;1167;83114;-75
2021/03/03 03:08:05;;;;;;;79.90;41.60;;;;;;;0.71;82.43;102036.51;99545;1172;66858;-61
2021/03/03 03:10:15;;;;;;;90.60;42.80;;;;;;;0.76;82.53;102042.42;99555;1172;87948;-60
2021/03/03 03:12:24;;;;;;;75.60;36.05;;;;;;;0.69;82.58;102051.67;99575;1172;75617;-74
2021/03/03 03:14:32;;;;;;;88.10;39.70;;;;;;;0.73;82.73;102047.05;99542;1172;89815;-74
2021/03/03 03:16:41;;;;;;;81.00;37.25;;;;;;;0.77;82.55;102045.95;99530;1172;82564;-60
2021/03/03 03:18:52;;;;;;;75.80;37.73;;;;;;;0.73;82.57;102047.05;99572;1172;66867;-60
2021/03/03 03:21:02;;;;;;;87.40;41.40;;;;;;;0.63;82.55;102041.41;99539;1172;88093;-60
2021/03/03 03:23:08;;;;;;;83.55;37.60;;;;;;;0.48;82.65;102037.78;99541;1172;75464;-75
2021/03/03 03:25:17;;;;;;;77.30;35.45;;;;;;;0.45;82.51;102032.64;99559;1172;89888;-75
2021/03/03 03:27:24;;;;;;;95.20;41.33;;;;;;;0.47;82.19;102036.06;99547;1172;82840;-61
2021/03/03 03:29:30;;;;;;;86.45;38.55;;;;;;;0.51;82.89;102036.75;99489;1168;66884;-61
2021/03/03 03:31:38;;;;;;;93.13;39.57;;;;;;;0.57;82.46;102039.95;99570;1172;87949;-75
2021/03/03 03:33:44;;;;;;;74.70;36.95;;;;;;;0.53;82.88;102037.52;99556;1171;74957;-75
2021/03/03 03:35:50;;;;;;;88.55;41.15;;;;;;;0.53;82.85;102034.86;99554;1171;89288;-76
2021/03/03 03:37:57;;;;;;;86.70;37.90;;;;;;;0.61;82.67;102032.63;99529;1171;82764;-63
2021/03/03 03:40:04;;;;;;;76.70;36.10;;;;;;;0.64;82.57;102023.63;99534;1167;67128;-62
2021/03/03 03:42:14;;;;;;;78.60;37.00;;;;;;;0.58;82.66;102033.66;99546;1172;87445;-62
2021/03/03 03:44:22;;;;;;;76.40;37.00;;;;;;;0.62;82.43;102025.52;99563;1172;75380;-62
2021/03/03 03:46:28;;;;;;;89.75;38.80;;;;;;;0.65;82.21;102025.34;99550;1167;89681;-62
2021/03/03 03:48:36;;;;;;;87.15;39.45;;;;;;;0.64;82.30;102031.59;99539;1172;82399;-62
2021/03/03 03:50:42;;;;;;;77.15;37.10;;;;;;;0.67;82.29;102036.75;99566;1172;66906;-62
2021/03/03 03:52:53;;;;;;;89.67;40.23;;;;;;;0.66;82.61;102035.05;99562;1171;87562;-76
2021/03/03 03:55:02;;;;;;;131.13;54.57;;;;;;;0.62;82.76;102026.38;99545;1172;75781;-76
2021/03/03 03:57:08;;;;;;;117.93;49.40;;;;;;;0.60;82.56;102031.77;99549;1172;89399;-76
2021/03/03 03:59:14;;;;;;;97.83;42.87;;;;;;;0.63;82.35;102035.22;99524;1172;82478;-75
2021/03/03 04:01:20;;;;;;;89.45;40.40;;;;;;;0.65;82.35;102026.21;99568;1172;67347;-74
2021/03/03 04:03:26;;;;;;;82.90;38.97;;;;;;;0.65;82.66;102022.69;99549;1171;87725;-74
2021/03/03 04:05:31;;;;;;;87.55;41.90;;;;;;;0.70;82.62;102020.63;99552;1172;75234;-74
2021/03/03 04:07:37;;;;;;;87.80;41.40;;;;;;;0.69;82.54;102021.59;99558;1170;89590;-73
2021/03/03 04:09:43;;;;;;;93.45;42.25;;;;;;;0.75;82.77;102021.22;99523;1173;82459;-73
2021/03/03 04:11:49;;;;;;;94.50;41.15;;;;;;;0.80;82.41;102011.16;99553;1172;67089;-73
2021/03/03 04:13:55;;;;;;;86.33;40.00;;;;;;;0.75;82.54;102011.44;99525;1170;87809;-74
2021/03/03 04:16:01;;;;;;;98.70;42.50;;;;;;;0.76;82.49;102006.98;99565;1171;75210;-74
2021/03/03 04:18:08;;;;;;;89.17;39.27;;;;;;;0.67;82.80;102016.34;99542;1171;89453;-60
2021/03/03 04:20:16;;;;;;;94.70;41.30;;;;;;;0.66;82.95;102024.41;99537;1167;82004;-61
2021/03/03 04:22:25;;;;;;;89.20;41.53;;;;;;;0.70;82.97;102015.30;99561;1172;66822;-74
2021/03/03 04:24:30;;;;;;;98.00;42.45;;;;;;;0.71;82.87;102019.69;99566;1172;86233;-74
2021/03/03 04:26:36;;;;;;;97.20;40.95;;;;;;;0.75;82.73;102013.23;99589;1172;75224;-74
2021/03/03 04:28:42;;;;;;;95.45;41.05;;;;;;;0.69;82.97;102016.27;99567;1167;89101;-74
2021/03/03 04:30:47;;;;;;;108.50;43.70;;;;;;;0.71;82.52;102015.23;99538;1172;83080;-74
2021/03/03 04:32:53;;;;;;;93.00;42.30;;;;;;;0.77;82.90;102009.54;99565;1170;67060;-74
2021/03/03 04:34:59;;;;;;;91.30;40.40;;;;;;;0.78;83.13;102008.61;99530;1172;87581;-74
2021/03/03 04:37:05;;;;;;;83.40;39.90;;;;;;;0.76;82.94;102005.19;99567;1172;76009;-61
2021/03/03 04:39:10;;;;;;;96.90;41.80;;;;;;;0.75;82.64;102000.80;99554;1171;89066;-61
2021/03/03 04:41:16;;;;;;;95.40;42.50;;;;;;;0.77;83.05;102006.88;99547;1171;82463;-74
2021/03/03 04:43:22;;;;;;;95.80;42.10;;;;;;;0.76;83.06;102009.64;99567;1168;66882;-75
2021/03/03 04:45:27;;;;;;;97.20;42.63;;;;;;;0.78;82.84;102002.42;99546;1168;87319;-74
2021/03/03 04:47:33;;;;;;;102.25;43.35;;;;;;;0.81;82.71;102002.25;99580;1171;74432;-75
2021/03/03 04:49:39;;;;;;;101.60;46.45;;;;;;;0.83;82.74;102005.67;99551;1168;89043;-75
2021/03/03 04:51:45;;;;;;;117.17;50.63;;;;;;;0.81;82.91;102003.12;99536;1172;81830;-61
2021/03/03 04:53:51;;;;;;;85.20;42.10;;;;;;;0.73;83.01;101999.17;99554;1172;66920;-61
2021/03/03 04:55:56;;;;;;;93.60;42.50;;;;;;;0.70;83.26;102007.33;99511;1171;87422;-61
2021/03/03 04:58:02;;;;;;;95.95;41.95;;;;;;;0.69;82.90;101997.66;99556;1172;75267;-61
2021/03/03 05:00:13;;;;;;;104.03;44.60;;;;;;;0.69;83.02;101992.33;99539;1172;89316;-61
2021/03/03 05:02:19;;;;;;;104.20;44.50;;;;;;;0.75;82.66;101986.64;99526;1171;82423;-61
2021/03/03 05:04:25;;;;;;;90.40;42.30;;;;;;;0.77;82.97;101982.11;99556;1168;67135;-61
2021/03/03 05:06:31;;;;;;;92.50;43.90;;;;;;;0.84;82.69;101986.13;99560;1172;86623;-75
2021/03/03 05:08:37;;;;;;;91.20;41.57;;;;;;;0.81;82.69;101986.30;99566;1172;76216;-75
2021/03/03 05:10:42;;;;;;;93.35;42.75;;;;;;;0.83;83.01;101979.08;99564;1166;88314;-74
2021/03/03 05:12:48;;;;;;;96.65;43.05;;;;;;;0.85;82.87;101980.70;99560;1167;81793;-61
2021/03/03 05:14:54;;;;;;;95.67;43.47;;;;;;;0.83;82.69;101976.41;99577;1171;67164;-62
2021/03/03 05:17:00;;;;;;;96.45;44.75;;;;;;;0.87;83.05;101976.17;99523;1166;87773;-75
2021/03/03 05:19:06;;;;;;;91.90;44.20;;;;;;;0.87;83.10;101985.95;99554;1172;76102;-74
2021/03/03 05:21:14;;;;;;;92.17;42.33;;;;;;;0.85;83.09;101988.67;99558;1171;89909;-74
2021/03/03 05:23:33;;;;;;;89.90;43.40;;;;;;;0.84;82.76;101989.64;99538;1172;83086;-74
2021/03/03 05:25:39;;;;;;;91.85;43.30;;;;;;;0.89;82.82;101992.03;99560;1172;66492;-76
2021/03/03 05:27:45;;;;;;;85.40;40.70;;;;;;;0.89;82.75;101989.37;99561;1172;88408;-61
2021/03/03 05:29:54;;;;;;;88.20;41.90;;;;;;;0.87;82.93;101988.61;99542;1171;74833;-61
2021/03/03 05:32:00;;;;;;;87.30;42.05;;;;;;;0.87;82.64;101992.13;99568;1168;90237;-74
2021/03/03 05:34:05;;;;;;;87.40;42.77;;;;;;;0.88;82.75;101991.16;99559;1171;82237;-75
2021/03/03 05:36:12;;;;;;;85.85;40.70;;;;;;;0.91;82.75;101998.97;99551;1167;67447;-75
2021/03/03 05:38:18;;;;;;;80.75;43.30;;;;;;;0.97;82.76;101995.09;99540;1172;87596;-75
2021/03/03 05:40:24;;;;;;;91.50;44.15;;;;;;;1.00;82.94;101993.13;99552;1171;75205;-77
2021/03/03 05:42:31;;;;;;;83.00;40.25;;;;;;;1.02;82.85;101995.69;99565;1172;89134;-75
2021/03/03 05:44:38;;;;;;;86.80;40.30;;;;;;;0.95;82.97;101989.88;99537;1167;81554;-75
2021/03/03 05:46:48;;;;;;;84.50;40.15;;;;;;;1.01;83.04;101981.55;99505;1172;66858;-74
2021/03/03 05:49:02;;;;;;;80.05;40.30;;;;;;;1.01;83.20;101996.65;99552;1172;87270;-75
2021/03/03 05:51:10;;;;;;;80.55;39.80;;;;;;;1.00;83.83;101990.47;99564;1172;76007;-68
2021/03/03 05:53:17;;;;;;;79.40;39.80;;;;;;;0.97;83.42;101989.78;99545;1172;90199;-75
2021/03/03 05:55:23;;;;;;;75.10;36.45;;;;;;;0.96;83.34;101990.75;99535;1172;82865;-75
2021/03/03 05:57:33;;;;;;;77.73;37.97;;;;;;;0.99;83.20;101988.74;99568;1172;66848;-74
2021/03/03 05:59:39;;;;;;;79.27;37.63;;;;;;;1.02;82.63;101985.04;99538;1166;87650;-75
2021/03/03 06:01:46;;;;;;;75.80;36.45;;;;;;;1.01;82.81;101991.33;99559;1172;75983;-75
2021/03/03 06:03:53;;;;;;;74.80;36.50;;;;;;;1.05;82.86;101991.05;99548;1172;88584;-76
2021/03/03 06:05:59;;;;;;;68.50;33.40;;;;;;;1.09;82.76;101981.95;99543;1170;82186;-73
2021/03/03 06:08:07;;;;;;;70.80;33.50;;;;;;;0.97;82.65;102003.08;99572;1168;66945;-74
2021/03/03 06:10:16;;;;;;;75.25;35.60;;;;;;;0.94;82.75;101990.81;99544;1172;87660;-74
2021/03/03 06:12:21;;;;;;;74.20;34.80;;;;;;;0.96;82.70;101988.91;99555;1172;76588;-60
2021/03/03 06:14:28;;;;;;;77.00;37.00;;;;;;;0.96;82.78;101988.08;99552;1172;89482;-61
2021/03/03 06:16:34;;;;;;;76.50;37.30;;;;;;;0.99;82.85;101987.91;99530;1167;82649;-60
2021/03/03 06:18:40;;;;;;;75.50;37.00;;;;;;;0.93;82.85;101986.46;99556;1170;66900;-60
2021/03/03 06:20:49;;;;;;;77.30;36.20;;;;;;;0.93;82.76;101980.28;99561;1172;87566;-60
2021/03/03 06:22:55;;;;;;;86.10;38.90;;;;;;;0.89;82.95;101984.91;99570;1172;75773;-75
2021/03/03 06:25:01;;;;;;;82.30;37.70;;;;;;;0.92;82.83;101978.55;99564;1172;89733;-74
2021/03/03 06:27:07;;;;;;;82.50;38.55;;;;;;;1.00;83.02;101976.30;99539;1172;82486;-62
2021/03/03 06:29:16;;;;;;;81.45;38.65;;;;;;;0.96;83.02;101980.10;99556;1172;66942;-62
2021/03/03 06:31:33;;;;;;;83.30;38.45;;;;;;;0.98;83.24;101983.52;99546;1172;87788;-62
2021/03/03 06:33:39;;;;;;;79.90;36.60;;;;;;;0.97;83.02;101976.48;99560;1172;75061;-60
2021/03/03 06:35:47;;;;;;;89.53;41.67;;;;;;;1.09;82.96;101981.09;99558;1172;89396;-61
2021/03/03 06:37:57;;;;;;;84.10;40.40;;;;;;;1.11;82.75;101977.39;99555;1172;82274;-76
2021/03/03 06:40:12;;;;;;;80.80;38.20;;;;;;;1.08;83.20;101974.05;99546;1172;67060;-76
2021/03/03 06:42:27;;;;;;;75.13;36.57;;;;;;;1.10;82.81;101974.80;99539;1172;87859;-61
2021/03/03 06:44:50;;;;;;;76.10;37.10;;;;;;;1.16;83.10;101963.80;99556;1166;74611;-60
2021/03/03 06:47:07;;;;;;;78.40;36.60;;;;;;;1.09;82.97;101971.31;99573;1172;88784;-60
2021/03/03 06:49:25;;;;;;;75.30;34.63;;;;;;;1.13;83.02;101969.30;99518;1172;82331;-60
2021/03/03 06:51:33;;;;;;;81.15;37.45;;;;;;;1.07;83.10;101964.37;99552;1172;66898;-61
2021/03/03 06:53:39;;;;;;;74.20;35.50;;;;;;;1.14;82.70;101958.59;99530;1172;87656;-61
2021/03/03 06:55:49;;;;;;;72.60;33.55;;;;;;;1.25;82.95;101954.42;99566;1172;75877;-62
2021/03/03 06:57:55;;;;;;;72.40;33.10;;;;;;;1.19;83.13;101951.18;99514;1171;88907;-71
2021/03/03 07:00:01;;;;;;;73.00;35.00;;;;;;;1.26;83.09;101954.34;99520;1171;82034;-76
2021/03/03 07:02:14;;;;;;;71.10;34.40;;;;;;;1.24;82.99;101947.41;99532;1172;67050;-62
2021/03/03 07:04:32;;;;;;;72.10;33.50;;;;;;;1.23;82.79;101946.54;99540;1167;87149;-61
2021/03/03 07:06:37;;;;;;;74.30;34.20;;;;;;;1.17;82.74;101946.90;99562;1172;75567;-63
2021/03/03 07:08:59;;;;;;;75.10;34.00;;;;;;;1.17;82.83;101941.58;99532;1172;88679;-62
2021/03/03 07:11:22;;;;;;;71.50;33.30;;;;;;;1.22;82.88;101943.95;99535;1167;82596;-59
2021/03/03 07:13:41;;;;;;;70.50;32.90;;;;;;;1.18;83.09;101941.47;99552;1171;67008;-75
2021/03/03 07:15:47;;;;;;;70.70;34.40;;;;;;;1.26;82.95;101951.68;99550;1172;87274;-76
2021/03/03 07:17:56;;;;;;;73.10;33.05;;;;;;;1.26;82.86;101945.50;99562;1172;75024;-62
2021/03/03 07:20:04;;;;;;;65.15;28.95;;;;;;;1.30;82.96;101950.53;99547;1171;89001;-62
2021/03/03 07:22:26;;;;;;;64.40;30.60;;;;;;;1.34;82.83;101941.42;99536;1168;81523;-75
2021/03/03 07:24:35;;;;;;;57.90;28.65;;;;;;;1.39;83.09;101954.45;99552;1171;66713;-76
2021/03/03 07:26:44;;;;;;;63.30;29.50;;;;;;;1.34;82.93;101953.88;99437;1168;87114;-76
2021/03/03 07:28:50;;;;;;;67.57;30.60;;;;;;;1.42;82.51;101951.60;99454;1174;75216;-76
2021/03/03 07:30:56;;;;;;;60.40;28.65;;;;;;;1.47;82.59;101953.04;99447;1168;88571;-76
2021/03/03 07:33:06;;;;;;;64.20;31.85;;;;;;;1.49;82.83;101960.92;99425;1174;82758;-77
2021/03/03 07:35:14;;;;;;;69.23;32.40;;;;;;;1.47;82.85;101944.19;99447;1171;67024;-77
2021/03/03 07:37:25;;;;;;;61.85;28.65;;;;;;;1.45;82.74;101946.09;99437;1174;87966;-62
2021/03/03 07:39:40;;;;;;;66.90;32.70;;;;;;;1.41;82.94;101948.08;99449;1174;75974;-61
2021/03/03 07:41:48;;;;;;;70.20;33.10;;;;;;;1.49;82.53;101945.80;99440;1171;88832;-62
2021/03/03 07:43:59;;;;;;;70.40;34.55;;;;;;;1.60;82.61;101948.67;99422;1174;82869;-61
2021/03/03 07:46:14;;;;;;;71.70;36.00;;;;;;;1.61;82.36;101946.87;99442;1172;67220;-61
2021/03/03 07:48:20;;;;;;;64.60;33.10;;;;;;;1.62;82.53;101944.09;99424;1171;87175;-62
2021/03/03 07:50:27;;;;;;;68.40;34.00;;;;;;;1.62;82.90;101941.43;99451;1174;74604;-61
2021/03/03 07:52:40;;;;;;;59.80;30.20;;;;;;;1.59;82.74;101944.28;99438;1174;89355;-77
2021/03/03 07:54:46;;;;;;;66.85;33.90;;;;;;;1.65;82.48;101937.72;99436;1174;82924;-77
2021/03/03 07:56:52;;;;;;;68.90;34.90;;;;;;;1.65;82.58;101946.57;99447;1167;67073;-77
2021/03/03 07:58:59;;;;;;;70.53;33.67;;;;;;;1.71;82.59;101948.86;99436;1174;87759;-76
2021/03/03 08:01:12;;;;;;;62.40;30.05;;;;;;;1.73;82.53;101948.79;99446;1171;74747;-77
2021/03/03 08:03:41;;;;;;;;;;;;;;;1.73;82.43;101941.63;99464;1174;89190;-76
2021/03/03 08:05:51;;;;;;;63.20;31.63;;;;;;;1.78;82.57;101941.36;99425;1174;82299;-77
2021/03/03 08:08:24;;;;;;;61.90;29.90;;;;;;;1.76;82.32;101940.58;99448;1171;66962;-77
2021/03/03 08:11:27;;;;;;;67.80;32.20;;;;;;;1.78;82.54;101946.69;99440;1171;86465;-74
2021/03/03 08:13:38;;;;;;;70.60;32.50;;;;;;;1.81;82.38;101940.31;99439;1167;74396;-66
2021/03/03 08:15:56;;;;;;;64.75;31.80;;;;;;;1.86;82.32;101935.55;99543;1172;89363;-67
2021/03/03 08:18:26;;;;;;;60.60;27.85;;;;;;;1.85;82.62;101934.69;99543;1171;82326;-60
2021/03/03 08:20:37;;;;;;;60.10;29.80;;;;;;;1.94;82.46;101926.13;99554;1172;67139;-60
2021/03/03 08:22:57;;;;;;;56.70;28.40;;;;;;;2.06;82.54;101916.50;99543;1172;88248;-60
2021/03/03 08:25:03;;;;;;;50.05;25.05;;;;;;;2.14;82.49;101919.53;99550;1167;75494;-61
2021/03/03 08:27:38;;;;;;;53.60;27.20;;;;;;;2.20;82.31;101924.44;99553;1172;89250;-59
2021/03/03 08:30:15;;;;;;;44.95;24.60;;;;;;;2.19;82.37;101902.28;99563;1172;82520;-59
2021/03/03 08:32:25;;;;;;;43.10;24.00;;;;;;;2.19;82.47;101902.28;99567;1172;67055;-70
2021/03/03 08:34:54;;;;;;;45.55;23.40;;;;;;;2.30;82.28;101902.45;99551;1171;86596;-62
2021/03/03 08:37:02;;;;;;;43.95;24.35;;;;;;;2.34;82.15;101897.75;99530;1172;76045;-70
2021/03/03 08:39:37;;;;;;;46.10;25.25;;;;;;;2.37;82.17;101895.75;99569;1171;89305;-75
2021/03/03 08:41:45;;;;;;;52.25;25.80;;;;;;;2.36;82.32;101887.86;99566;1172;82371;-60
2021/03/03 08:44:03;;;;;;;49.85;27.45;;;;;;;2.48;81.78;101896.84;99569;1172;67018;-61
2021/03/03 08:46:53;;;;;;;52.80;28.50;;;;;;;2.52;81.90;101888.56;99536;1172;87295;-73
2021/03/03 08:49:27;;;;;;;49.80;25.50;;;;;;;2.57;81.90;101894.44;99548;1172;75967;-60
2021/03/03 08:51:36;;;;;;;52.70;26.03;;;;;;;2.58;81.97;101893.50;99565;1170;90096;-61
2021/03/03 08:53:52;;;;;;;52.33;27.17;;;;;;;2.59;82.12;101881.84;99547;1172;83412;-61
2021/03/03 08:56:00;;;;;;;133.55;76.80;;;;;;;2.69;81.92;101887.44;99579;1172;66940;-61
2021/03/03 08:58:52;;;;;;;63.60;34.30;;;;;;;2.68;81.70;101883.05;99546;1172;87161;-61
2021/03/03 09:01:07;;;;;;;57.80;28.90;;;;;;;2.73;81.89;101881.78;99564;1171;74775;-77
2021/03/03 09:03:22;;;;;;;50.65;27.30;;;;;;;2.83;81.82;101882.87;99552;1172;89367;-59
2021/03/03 09:05:33;;;;;;;53.00;27.80;;;;;;;2.91;81.67;101879.70;99550;1172;82733;-60
2021/03/03 09:07:40;;;;;;;48.80;26.40;;;;;;;2.85;81.08;101875.64;99442;1167;66993;-60
2021/03/03 09:09:49;;;;;;;55.10;28.00;;;;;;;2.99;81.58;101872.86;99433;1174;87685;-60
2021/03/03 09:12:04;;;;;;;53.30;28.60;;;;;;;3.02;81.53;101876.30;99576;1172;76200;-60
2021/03/03 09:14:15;;;;;;;52.40;27.80;;;;;;;2.92;81.42;101870.72;99537;1171;89225;-59
2021/03/03 09:16:21;;;;;;;56.65;28.50;;;;;;;2.88;81.57;101864.72;99521;1171;81396;-60
2021/03/03 09:18:27;;;;;;;56.35;28.40;;;;;;;2.95;81.52;101857.16;99553;1166;66853;-60
2021/03/03 09:20:33;;;;;;;51.75;27.60;;;;;;;2.95;81.24;101858.03;99531;1171;87591;-59
2021/03/03 09:22:42;;;;;;;55.95;28.95;;;;;;;2.83;81.64;101861.52;99574;1172;76001;-59
2021/03/03 09:24:51;;;;;;;57.80;29.85;;;;;;;2.90;81.56;101856.63;99561;1171;89282;-61
2021/03/03 09:27:10;;;;;;;56.25;28.85;;;;;;;2.98;81.61;101847.14;99531;1172;82430;-70
2021/03/03 09:29:33;;;;;;;56.30;29.10;;;;;;;3.14;81.55;101846.07;99584;1172;66873;-67
2021/03/03 09:31:42;;;;;;;58.53;30.47;;;;;;;3.10;81.10;101842.78;99553;1167;87307;-71
2021/03/03 09:33:49;;;;;;;53.00;28.40;;;;;;;3.08;81.38;101844.67;99564;1170;75741;-68
2021/03/03 09:35:55;;;;;;;56.70;30.30;;;;;;;3.20;80.70;101842.98;99563;1167;89785;-67
2021/03/03 09:38:00;;;;;;;;;;;;;;;3.28;81.31;101833.48;99530;1167;81938;-61
2021/03/03 09:40:10;;;;;;;58.85;29.00;;;;;;;3.20;81.23;101827.82;99557;1172;67187;-59
2021/03/03 09:42:16;;;;;;;51.25;28.45;;;;;;;3.26;81.00;101829.20;99566;1172;87734;-59
2021/03/03 09:44:22;;;;;;;52.60;30.40;;;;;;;3.36;81.13;101827.59;99552;1172;76008;-60
2021/03/03 09:46:28;;;;;;;51.20;28.30;;;;;;;3.44;80.72;101831.42;99565;1172;89670;-60
2021/03/03 09:48:34;;;;;;;54.50;28.40;;;;;;;3.53;81.02;101830.78;99538;1172;82625;-61
2021/03/03 09:50:40;;;;;;;56.30;30.80;;;;;;;3.65;80.75;101828.20;99563;1172;66891;-61
2021/03/03 09:52:49;;;;;;;56.20;30.75;;;;;;;3.70;80.67;101832.25;99557;1172;88290;-75
2021/03/03 09:54:55;;;;;;;53.50;30.00;;;;;;;3.67;80.82;101827.13;99556;1172;75874;-74